Time;durP1;ratioP1;P1;durP2;ratioP2;P2;SDS_P1;SDS_P2;PMS_P1;PMS_P2;Temp;Humidity;BMP_temperature;BMP_pressure;BME280_temperature;BME280_humidity;BME280_pressure;Samples;Min_cycle;Max_cycle;Signal;HPM_P1;HPM_P2
2022/03/18 00:00:48;;;;;;;21.47;17.50;;;5.80;80.00;;;;;;5095312;28;20175;-89
2022/03/18 00:02:55;;;;;;;25.10;17.60;;;5.90;79.90;;;;;;5095657;28;20193;-85
2022/03/18 00:05:22;;;;;;;22.47;17.67;;;5.80;79.80;;;;;;5094909;28;20549;-87
2022/03/18 00:07:48;;;;;;;21.73;17.60;;;5.80;80.10;;;;;;5096107;28;20175;-86
2022/03/18 00:10:17;;;;;;;22.27;17.87;;;5.80;80.30;;;;;;5096659;28;20632;-85
2022/03/18 00:12:43;;;;;;;22.27;18.60;;;5.80;80.30;;;;;;5096373;28;20189;-91
2022/03/18 00:15:11;;;;;;;23.37;18.23;;;5.60;80.70;;;;;;5095011;28;20184;-85
2022/03/18 00:17:37;;;;;;;21.60;17.13;;;5.60;80.70;;;;;;5097055;28;20253;-86
2022/03/18 00:20:05;;;;;;;23.07;18.03;;;5.60;80.90;;;;;;5102433;28;20183;-86
2022/03/18 00:22:31;;;;;;;25.13;17.67;;;5.50;81.00;;;;;;5101768;28;20170;-84
2022/03/18 00:24:56;;;;;;;21.70;17.70;;;5.50;81.00;;;;;;5108184;28;20198;-85
2022/03/18 00:27:23;;;;;;;25.10;18.17;;;5.60;81.30;;;;;;5096145;28;20275;-84
2022/03/18 00:29:49;;;;;;;24.03;17.43;;;5.50;81.30;;;;;;5096523;28;20201;-85
2022/03/18 00:32:15;;;;;;;21.80;17.60;;;5.60;81.20;;;;;;5102890;28;20200;-89
2022/03/18 00:34:40;;;;;;;22.90;17.67;;;5.70;80.90;;;;;;5100852;28;20176;-90
2022/03/18 00:37:07;;;;;;;23.73;18.67;;;5.60;81.10;;;;;;5097005;28;20267;-86
2022/03/18 00:39:33;;;;;;;34.03;17.93;;;5.50;81.20;;;;;;5095465;28;20170;-92
2022/03/18 00:41:58;;;;;;;22.23;17.13;;;5.40;81.50;;;;;;5096355;28;20177;-91
2022/03/18 00:44:25;;;;;;;22.43;17.53;;;5.50;81.50;;;;;;5097561;28;20181;-90
2022/03/18 00:46:52;;;;;;;22.23;16.90;;;5.50;81.90;;;;;;5112024;28;20173;-91
2022/03/18 00:52:04;;;;;;;21.93;17.27;;;5.60;81.60;;;;;;5109779;28;20164;-84
2022/03/18 00:54:37;;;;;;;23.70;17.00;;;5.50;81.90;;;;;;5099464;28;20664;-85
2022/03/18 00:57:04;;;;;;;21.27;17.20;;;5.50;81.90;;;;;;5094005;28;20170;-86
2022/03/18 00:59:30;;;;;;;22.27;17.90;;;5.40;81.90;;;;;;5094479;28;20239;-86
2022/03/18 01:01:57;;;;;;;25.67;17.80;;;5.30;82.30;;;;;;5094538;28;20257;-87
2022/03/18 01:04:24;;;;;;;23.50;17.87;;;5.30;82.20;;;;;;5093262;28;20178;-85
2022/03/18 01:06:52;;;;;;;22.37;17.13;;;5.30;82.30;;;;;;5094769;28;20170;-90
2022/03/18 01:09:19;;;;;;;22.20;17.53;;;5.30;82.40;;;;;;5095106;28;20203;-89
2022/03/18 01:11:45;;;;;;;23.57;17.67;;;5.20;82.60;;;;;;5096190;28;20170;-88
2022/03/18 01:14:11;;;;;;;20.07;16.40;;;5.30;82.60;;;;;;5095493;28;20653;-90
2022/03/18 01:16:37;;;;;;;20.07;16.77;;;5.20;82.90;;;;;;5094736;28;20195;-92
2022/03/18 01:19:02;;;;;;;23.13;17.13;;;5.20;82.70;;;;;;5094680;28;20220;-91
2022/03/18 01:21:28;;;;;;;20.07;16.93;;;5.20;82.90;;;;;;5093938;28;20208;-87
2022/03/18 01:23:54;;;;;;;20.47;17.07;;;5.20;83.60;;;;;;5095037;28;20185;-90
2022/03/18 01:26:19;;;;;;;22.53;17.53;;;5.10;82.80;;;;;;5094324;28;20174;-86
2022/03/18 01:28:45;;;;;;;21.33;17.37;;;5.10;83.10;;;;;;5111372;28;20240;-87
2022/03/18 01:31:11;;;;;;;24.50;17.90;;;5.10;83.00;;;;;;5113678;28;20178;-87
2022/03/18 01:33:37;;;;;;;20.37;16.93;;;5.10;83.00;;;;;;5096309;28;20639;-87
2022/03/18 01:36:06;;;;;;;23.63;16.50;;;5.10;83.20;;;;;;5095382;28;20185;-88
2022/03/18 01:38:32;;;;;;;19.50;15.93;;;5.20;82.70;;;;;;5114603;28;20625;-87
2022/03/18 01:40:59;;;;;;;19.93;16.63;;;5.10;82.60;;;;;;5114967;28;20166;-86
2022/03/18 01:43:25;;;;;;;24.47;19.13;;;5.00;82.60;;;;;;5116806;28;20169;-87
2022/03/18 01:45:51;;;;;;;20.90;16.77;;;5.00;82.70;;;;;;5096845;28;20548;-85
2022/03/18 01:48:17;;;;;;;20.30;16.70;;;5.00;82.60;;;;;;5114312;28;20189;-87
2022/03/18 01:50:44;;;;;;;19.53;16.70;;;5.10;82.70;;;;;;5096825;28;20756;-87
2022/03/18 01:53:10;;;;;;;22.13;16.37;;;5.10;82.70;;;;;;5095583;28;20216;-86
2022/03/18 01:55:37;;;;;;;21.63;16.77;;;5.00;82.70;;;;;;5113987;28;20221;-85
2022/03/18 01:58:04;;;;;;;22.37;17.23;;;5.00;83.00;;;;;;5114552;28;20243;-85
2022/03/18 02:00:30;;;;;;;20.70;16.70;;;5.00;83.00;;;;;;5114310;28;20177;-85
2022/03/18 02:02:57;;;;;;;22.07;16.13;;;5.00;83.10;;;;;;5114185;28;20165;-87
2022/03/18 02:05:24;;;;;;;22.73;16.33;;;5.00;83.10;;;;;;5118126;28;20170;-84
2022/03/18 02:07:50;;;;;;;22.30;16.73;;;4.90;83.00;;;;;;5127194;28;20166;-89
2022/03/18 02:10:16;;;;;;;20.30;15.70;;;4.90;83.30;;;;;;5127984;28;20202;-84
2022/03/18 02:12:42;;;;;;;22.87;16.83;;;4.90;83.20;;;;;;5123866;28;20165;-90
2022/03/18 02:15:09;;;;;;;20.10;16.07;;;4.90;83.50;;;;;;5097228;28;20197;-92
2022/03/18 02:17:37;;;;;;;20.40;15.63;;;4.80;83.60;;;;;;5096176;28;20172;-89
2022/03/18 02:20:03;;;;;;;17.53;15.63;;;4.80;83.70;;;;;;5114415;28;20521;-90
2022/03/18 02:22:37;;;;;;;18.50;15.57;;;4.70;83.80;;;;;;5114225;28;20185;-89
2022/03/18 02:25:04;;;;;;;19.83;16.43;;;4.60;83.90;;;;;;5114837;28;20660;-90
2022/03/18 02:27:29;;;;;;;21.37;16.83;;;4.60;84.00;;;;;;5114233;28;20226;-90
2022/03/18 02:29:55;;;;;;;19.93;16.23;;;4.70;83.90;;;;;;5114094;28;20204;-92
2022/03/18 02:32:22;;;;;;;19.07;16.57;;;4.70;84.00;;;;;;5114096;28;20184;-93
2022/03/18 02:34:48;;;;;;;20.63;16.03;;;4.70;84.00;;;;;;5096169;28;20202;-92
2022/03/18 02:37:14;;;;;;;22.63;16.37;;;4.70;84.20;;;;;;5096298;28;20208;-89
2022/03/18 02:39:39;;;;;;;19.90;16.93;;;4.60;84.50;;;;;;5114607;28;20230;-92
2022/03/18 02:42:05;;;;;;;21.33;16.30;;;4.60;84.60;;;;;;5114469;28;20201;-92
2022/03/18 02:44:32;;;;;;;22.97;17.90;;;4.60;84.90;;;;;;5114039;28;20168;-92
2022/03/18 02:47:00;;;;;;;20.93;17.13;;;4.60;85.10;;;;;;5113978;28;20207;-88
2022/03/18 02:49:26;;;;;;;20.27;17.23;;;4.60;85.20;;;;;;5113788;28;20201;-90
2022/03/18 02:51:52;;;;;;;21.53;17.70;;;4.50;85.30;;;;;;5114252;28;20691;-90
2022/03/18 02:54:18;;;;;;;21.40;17.40;;;4.50;85.60;;;;;;5114519;28;20168;-89
2022/03/18 02:56:43;;;;;;;22.13;16.97;;;4.60;85.70;;;;;;5114676;28;20180;-87
2022/03/18 02:59:09;;;;;;;23.30;16.90;;;4.50;85.90;;;;;;5100617;28;20188;-86
2022/03/18 03:01:35;;;;;;;21.83;17.60;;;4.50;85.80;;;;;;5126695;28;20174;-84
2022/03/18 03:04:01;;;;;;;23.67;17.47;;;4.50;85.80;;;;;;5127112;28;20170;-85
2022/03/18 03:09:12;;;;;;;19.63;17.03;;;4.40;86.30;;;;;;5128968;28;20293;-85
2022/03/18 03:11:38;;;;;;;19.87;17.43;;;4.30;86.80;;;;;;5127725;28;20177;-86
2022/03/18 03:14:04;;;;;;;20.07;17.10;;;4.20;87.00;;;;;;5104053;28;20177;-89
2022/03/18 03:16:30;;;;;;;21.73;17.13;;;4.10;87.50;;;;;;5117470;28;20165;-89
2022/03/18 03:18:56;;;;;;;22.40;18.10;;;4.10;87.90;;;;;;5117452;28;20170;-85
2022/03/18 03:21:22;;;;;;;21.77;17.37;;;4.00;88.20;;;;;;5116697;28;20243;-86
2022/03/18 03:23:47;;;;;;;22.50;18.17;;;4.00;88.10;;;;;;5098299;28;20214;-84
2022/03/18 03:26:14;;;;;;;21.67;16.90;;;4.00;88.30;;;;;;5116722;28;20171;-90
2022/03/18 03:28:40;;;;;;;20.03;17.27;;;4.00;88.20;;;;;;5116494;28;20221;-89
2022/03/18 03:31:06;;;;;;;21.10;17.67;;;4.00;88.10;;;;;;5116595;28;20162;-90
2022/03/18 03:33:32;;;;;;;21.33;17.27;;;4.10;88.10;;;;;;5117111;28;20199;-91
2022/03/18 03:35:58;;;;;;;22.57;17.60;;;4.00;88.10;;;;;;5120662;28;20689;-89
2022/03/18 03:38:25;;;;;;;21.23;17.77;;;4.00;88.20;;;;;;5099304;28;20181;-89
2022/03/18 03:40:51;;;;;;;22.67;17.50;;;4.00;88.40;;;;;;5098622;28;20176;-87
2022/03/18 03:43:17;;;;;;;23.23;18.07;;;3.90;88.50;;;;;;5098693;28;20207;-88
2022/03/18 03:45:43;;;;;;;22.27;17.93;;;3.90;88.80;;;;;;5117243;28;20181;-89
2022/03/18 03:48:10;;;;;;;22.30;17.57;;;3.90;89.30;;;;;;5098912;28;20656;-90
2022/03/18 03:50:37;;;;;;;22.93;17.97;;;3.90;89.40;;;;;;5124560;28;20234;-84
2022/03/18 03:53:03;;;;;;;23.07;18.17;;;3.90;89.40;;;;;;5111418;28;20219;-89
2022/03/18 03:55:29;;;;;;;25.83;19.30;;;3.90;89.80;;;;;;5126361;28;20173;-86
2022/03/18 03:57:55;;;;;;;24.27;19.57;;;3.80;90.00;;;;;;5127662;28;20170;-91
2022/03/18 04:00:21;;;;;;;22.87;18.67;;;3.80;90.10;;;;;;5119619;28;20180;-89
2022/03/18 04:02:47;;;;;;;22.83;17.83;;;3.80;90.10;;;;;;5116469;28;20580;-91
2022/03/18 04:05:13;;;;;;;21.80;18.43;;;3.80;90.20;;;;;;5098145;28;20181;-90
2022/03/18 04:07:44;;;;;;;26.13;17.67;;;3.70;90.20;;;;;;5116217;28;20614;-92
2022/03/18 04:10:11;;;;;;;23.87;18.60;;;3.60;90.40;;;;;;5116154;28;20288;-92
2022/03/18 04:12:37;;;;;;;22.07;18.67;;;3.60;90.40;;;;;;5116149;28;20179;-92
2022/03/18 04:15:04;;;;;;;22.80;18.53;;;3.70;90.40;;;;;;5116199;28;20232;-89
2022/03/18 04:17:43;;;;;;;21.67;17.93;;;3.70;90.40;;;;;;5116519;28;20158;-91
2022/03/18 04:20:11;;;;;;;20.70;17.10;;;3.70;90.40;;;;;;5116934;28;20171;-93
2022/03/18 04:22:38;;;;;;;21.20;18.20;;;3.70;90.40;;;;;;5116570;28;20177;-86
2022/03/18 04:25:04;;;;;;;23.03;18.80;;;3.60;90.40;;;;;;5098307;28;20713;-92
2022/03/18 04:27:31;;;;;;;22.63;18.50;;;3.60;90.60;;;;;;5116113;28;20749;-92
2022/03/18 04:29:56;;;;;;;20.87;17.80;;;3.50;90.80;;;;;;5116065;28;20676;-91
2022/03/18 04:32:22;;;;;;;23.43;19.30;;;3.40;90.90;;;;;;5116306;28;20170;-93
2022/03/18 04:34:48;;;;;;;22.03;18.23;;;3.40;90.80;;;;;;5116419;28;20196;-86
2022/03/18 04:37:13;;;;;;;25.17;18.07;;;3.50;90.90;;;;;;5115316;28;20179;-85
2022/03/18 04:39:39;;;;;;;23.07;18.03;;;3.40;91.00;;;;;;5115094;28;20513;-85
2022/03/18 04:42:05;;;;;;;22.30;18.20;;;3.30;91.20;;;;;;5096824;28;20184;-87
2022/03/18 04:44:30;;;;;;;21.60;17.80;;;3.20;91.30;;;;;;5114886;28;20256;-85
2022/03/18 04:46:56;;;;;;;21.57;18.40;;;3.20;91.40;;;;;;5114916;28;20192;-85
2022/03/18 04:49:22;;;;;;;30.97;18.23;;;3.30;91.40;;;;;;5114672;28;20284;-85
2022/03/18 04:51:48;;;;;;;23.77;18.37;;;3.30;91.40;;;;;;5115146;28;20170;-85
2022/03/18 04:54:13;;;;;;;23.90;19.10;;;3.20;91.60;;;;;;5114864;28;20183;-85
2022/03/18 04:59:23;;;;;;;21.73;18.67;;;3.30;91.60;;;;;;5114778;28;20172;-85
2022/03/18 05:01:49;;;;;;;21.53;17.80;;;3.30;91.60;;;;;;5114868;28;20169;-92
2022/03/18 05:04:15;;;;;;;21.57;18.40;;;3.40;91.50;;;;;;5096871;28;20178;-88
2022/03/18 05:06:41;;;;;;;22.63;18.57;;;3.40;91.40;;;;;;5115075;28;20179;-89
2022/03/18 05:09:07;;;;;;;21.60;17.33;;;3.30;91.50;;;;;;5114807;28;20287;-88
2022/03/18 05:11:33;;;;;;;24.77;19.20;;;3.30;91.70;;;;;;5115583;28;20177;-88
2022/03/18 05:13:59;;;;;;;25.07;18.53;;;3.20;91.90;;;;;;5097092;28;20195;-86
2022/03/18 05:16:25;;;;;;;21.50;18.37;;;3.10;92.10;;;;;;5096669;28;20201;-90
2022/03/18 05:18:52;;;;;;;22.13;17.87;;;3.00;92.10;;;;;;5114844;28;20587;-89
2022/03/18 05:21:17;;;;;;;22.77;18.30;;;3.00;92.40;;;;;;5115201;28;20179;-88
2022/03/18 05:23:43;;;;;;;26.83;19.20;;;2.90;92.50;;;;;;5097021;28;20181;-89
2022/03/18 05:26:09;;;;;;;24.97;19.23;;;2.90;92.70;;;;;;5117519;28;20256;-88
2022/03/18 05:28:37;;;;;;;22.80;19.30;;;2.90;92.90;;;;;;5116387;28;20263;-89
2022/03/18 05:31:02;;;;;;;24.70;19.50;;;2.90;93.10;;;;;;5115878;28;20199;-92
2022/03/18 05:33:28;;;;;;;24.23;18.97;;;2.90;93.20;;;;;;5115542;28;20172;-85
2022/03/18 05:35:54;;;;;;;26.77;18.77;;;3.00;93.40;;;;;;5126352;28;20173;-86
2022/03/18 05:38:20;;;;;;;21.77;19.10;;;3.00;93.50;;;;;;5128930;28;20184;-84
2022/03/18 05:40:46;;;;;;;23.93;18.80;;;2.90;93.80;;;;;;5135699;28;20185;-84
2022/03/18 05:43:11;;;;;;;25.13;19.37;;;3.10;93.70;;;;;;5122982;28;20177;-92
2022/03/18 05:45:37;;;;;;;24.87;19.57;;;3.10;93.70;;;;;;5102860;28;20172;-86
2022/03/18 05:48:06;;;;;;;24.27;19.77;;;3.10;93.70;;;;;;5129583;28;20165;-85
2022/03/18 05:50:33;;;;;;;24.43;19.23;;;3.10;93.80;;;;;;5119948;28;20323;-90
2022/03/18 05:52:59;;;;;;;24.87;20.57;;;3.20;93.90;;;;;;5098669;28;20180;-88
2022/03/18 05:55:26;;;;;;;24.43;18.70;;;3.20;93.80;;;;;;5097474;28;20186;-87
2022/03/18 05:57:52;;;;;;;23.57;18.73;;;3.30;93.70;;;;;;5096503;28;20181;-87
2022/03/18 06:00:18;;;;;;;27.67;19.30;;;3.30;93.70;;;;;;5116541;28;20195;-85
2022/03/18 06:02:45;;;;;;;25.10;19.70;;;3.30;93.70;;;;;;5114931;28;20166;-85
2022/03/18 06:05:11;;;;;;;24.57;19.00;;;3.40;93.80;;;;;;5114256;28;20161;-89
2022/03/18 06:07:38;;;;;;;27.27;20.43;;;3.50;93.70;;;;;;5114480;28;20190;-85
2022/03/18 06:12:48;;;;;;;24.07;20.07;;;3.60;93.70;;;;;;5114288;28;20169;-91
2022/03/18 06:15:14;;;;;;;22.93;20.37;;;3.60;93.70;;;;;;5114487;28;20174;-92
2022/03/18 06:17:40;;;;;;;27.10;20.63;;;3.70;93.80;;;;;;5115949;28;20608;-90
2022/03/18 06:20:06;;;;;;;24.30;19.63;;;3.70;93.60;;;;;;5098038;28;20174;-89
2022/03/18 06:22:32;;;;;;;23.27;19.17;;;3.70;93.70;;;;;;5099022;28;20177;-92
2022/03/18 06:24:57;;;;;;;26.67;20.00;;;3.80;93.70;;;;;;5115683;28;20169;-92
2022/03/18 06:27:23;;;;;;;27.93;18.73;;;3.90;93.60;;;;;;5114976;28;20220;-91
2022/03/18 06:29:49;;;;;;;23.00;19.37;;;3.80;93.60;;;;;;5115326;28;20701;-88
2022/03/18 06:32:14;;;;;;;28.00;18.87;;;3.90;93.40;;;;;;5115115;28;20247;-93
2022/03/18 06:34:40;;;;;;;28.83;20.97;;;4.00;93.00;;;;;;5116737;28;20233;-90
2022/03/18 06:37:06;;;;;;;24.50;19.13;;;4.10;92.90;;;;;;5115871;28;20231;-86
2022/03/18 06:39:33;;;;;;;26.13;18.83;;;4.20;92.60;;;;;;5099466;28;20260;-90
2022/03/18 06:41:59;;;;;;;29.17;19.30;;;4.20;92.30;;;;;;5099888;28;20170;-87
2022/03/18 06:44:25;;;;;;;23.20;18.63;;;4.30;92.10;;;;;;5100231;28;20177;-87
2022/03/18 06:46:50;;;;;;;24.70;19.13;;;4.40;92.00;;;;;;5099846;28;20225;-92
2022/03/18 06:49:16;;;;;;;24.23;19.53;;;4.40;92.10;;;;;;5117920;28;20200;-89
2022/03/18 06:51:42;;;;;;;23.07;18.77;;;4.60;92.30;;;;;;5100209;28;20267;-92
2022/03/18 06:54:08;;;;;;;23.87;18.47;;;4.90;91.60;;;;;;5100181;28;20182;-90
2022/03/18 06:56:38;;;;;;;25.93;19.27;;;5.10;91.00;;;;;;5118348;28;20180;-92
2022/03/18 06:59:04;;;;;;;22.67;19.53;;;5.30;90.90;;;;;;5117968;28;20230;-86
2022/03/18 07:01:30;;;;;;;27.83;18.87;;;5.50;90.70;;;;;;5098997;28;20181;-86
2022/03/18 07:03:56;;;;;;;25.77;19.40;;;5.60;90.40;;;;;;5117607;28;20166;-91
2022/03/18 07:06:22;;;;;;;22.93;19.00;;;5.70;90.20;;;;;;5099990;28;20186;-89
2022/03/18 07:08:47;;;;;;;23.30;18.80;;;5.70;90.00;;;;;;5117629;28;20645;-92
2022/03/18 07:11:13;;;;;;;24.87;19.40;;;5.80;90.10;;;;;;5117949;28;20209;-91
2022/03/18 07:13:43;;;;;;;25.77;19.17;;;5.80;89.90;;;;;;5117666;28;20189;-91
2022/03/18 07:18:54;;;;;;;27.87;19.90;;;6.10;89.90;;;;;;5118674;28;20176;-88
2022/03/18 07:21:21;;;;;;;25.47;19.60;;;6.20;89.60;;;;;;5118894;28;20647;-85
2022/03/18 07:23:47;;;;;;;25.87;19.67;;;6.40;89.20;;;;;;5118422;28;20626;-85
2022/03/18 07:26:12;;;;;;;23.20;19.73;;;6.50;88.90;;;;;;5118617;28;20174;-85
2022/03/18 07:28:39;;;;;;;25.30;20.17;;;6.60;88.90;;;;;;5116897;28;20595;-85
2022/03/18 07:31:05;;;;;;;25.00;19.27;;;6.70;89.10;;;;;;5116989;28;20170;-84
2022/03/18 07:33:30;;;;;;;37.10;22.10;;;6.80;89.50;;;;;;5117274;28;20204;-86
2022/03/18 07:35:56;;;;;;;26.47;19.87;;;6.80;89.40;;;;;;5098286;28;20261;-85
2022/03/18 07:38:22;;;;;;;41.00;23.90;;;6.90;89.70;;;;;;5117143;28;20637;-87
2022/03/18 07:40:48;;;;;;;29.47;20.57;;;7.00;89.70;;;;;;5116009;28;20206;-86
2022/03/18 07:43:14;;;;;;;25.37;20.13;;;7.00;89.90;;;;;;5098258;28;20212;-86
2022/03/18 07:45:40;;;;;;;27.47;20.30;;;7.20;90.00;;;;;;5116397;28;20170;-90
2022/03/18 07:48:07;;;;;;;27.67;20.83;;;7.20;90.00;;;;;;5116613;28;20601;-89
2022/03/18 07:50:36;;;;;;;30.17;21.37;;;7.20;90.40;;;;;;5115674;28;20231;-86
2022/03/18 07:53:04;;;;;;;28.60;21.73;;;7.20;90.70;;;;;;5098445;28;20196;-89
2022/03/18 07:55:31;;;;;;;29.17;21.07;;;7.10;90.50;;;;;;5099221;28;20641;-90
2022/03/18 07:57:58;;;;;;;27.80;20.97;;;7.10;90.60;;;;;;5117395;28;20172;-92
2022/03/18 08:00:30;;;;;;;30.80;20.83;;;7.10;90.60;;;;;;5098836;28;20577;-88
2022/03/18 08:02:56;;;;;;;34.60;20.63;;;7.20;90.40;;;;;;5122734;28;20602;-89
2022/03/18 08:05:22;;;;;;;32.10;21.40;;;7.30;90.30;;;;;;5133987;28;20179;-83
2022/03/18 08:07:48;;;;;;;27.27;21.00;;;7.50;90.20;;;;;;5135510;28;20273;-84
2022/03/18 08:10:15;;;;;;;28.20;21.97;;;7.60;90.10;;;;;;5110295;28;20966;-89
2022/03/18 08:12:42;;;;;;;27.13;21.73;;;7.80;89.90;;;;;;5126782;28;20180;-86
2022/03/18 08:15:12;;;;;;;27.80;21.53;;;7.90;89.70;;;;;;5125511;28;20178;-91
2022/03/18 08:17:39;;;;;;;28.10;22.50;;;8.00;89.70;;;;;;5118504;28;20174;-89
2022/03/18 08:20:07;;;;;;;27.00;22.20;;;8.00;89.60;;;;;;5119612;28;20172;-85
2022/03/18 08:22:34;;;;;;;30.97;22.17;;;8.10;89.40;;;;;;5116021;28;20177;-86
2022/03/18 08:25:00;;;;;;;28.23;21.57;;;8.30;89.40;;;;;;5097208;28;20253;-85
2022/03/18 08:27:25;;;;;;;28.50;21.17;;;8.30;89.60;;;;;;5116745;28;20303;-86
2022/03/18 08:29:54;;;;;;;27.27;21.87;;;8.40;89.30;;;;;;5122200;28;20197;-88
2022/03/18 08:32:19;;;;;;;27.13;21.80;;;8.50;89.20;;;;;;5118407;28;20164;-87
2022/03/18 08:34:45;;;;;;;29.90;21.90;;;8.60;89.20;;;;;;5115981;28;20532;-88
2022/03/18 08:37:11;;;;;;;26.47;21.37;;;8.70;89.20;;;;;;5097207;28;20166;-86
2022/03/18 08:39:38;;;;;;;28.90;22.27;;;8.70;89.60;;;;;;5115329;28;20237;-85
2022/03/18 08:42:04;;;;;;;28.57;22.23;;;8.70;89.40;;;;;;5115534;28;20168;-87
2022/03/18 08:44:31;;;;;;;30.30;21.40;;;8.70;89.70;;;;;;5115458;28;20163;-85
2022/03/18 08:46:57;;;;;;;28.07;23.00;;;8.60;90.10;;;;;;5114949;28;20193;-87
2022/03/18 08:49:23;;;;;;;28.73;22.70;;;8.60;90.10;;;;;;5115065;28;20209;-86
2022/03/18 08:51:49;;;;;;;29.03;22.27;;;8.70;90.00;;;;;;5114974;28;20198;-85
2022/03/18 08:54:14;;;;;;;27.47;22.53;;;8.80;90.20;;;;;;5115119;28;20644;-87
2022/03/18 08:56:40;;;;;;;28.43;22.47;;;8.90;90.10;;;;;;5096816;28;20173;-86
2022/03/18 08:59:06;;;;;;;27.53;22.17;;;9.20;90.00;;;;;;5114863;28;20639;-89
2022/03/18 09:01:33;;;;;;;30.23;22.63;;;9.30;89.30;;;;;;5115000;28;20493;-87
2022/03/18 09:03:59;;;;;;;26.27;22.17;;;9.50;89.40;;;;;;5115663;28;20174;-90
2022/03/18 09:06:24;;;;;;;29.77;23.37;;;9.60;89.20;;;;;;5124511;28;20177;-87
2022/03/18 09:08:50;;;;;;;33.10;23.67;;;9.80;88.80;;;;;;5117230;28;20197;-89
2022/03/18 09:11:16;;;;;;;27.07;23.03;;;9.90;88.20;;;;;;5115920;28;20532;-86
2022/03/18 09:13:42;;;;;;;29.07;23.73;;;10.00;87.40;;;;;;5098076;28;20626;-86
2022/03/18 09:16:08;;;;;;;30.73;22.97;;;10.00;87.00;;;;;;5115148;28;20170;-86
2022/03/18 09:18:34;;;;;;;30.50;23.43;;;10.00;86.50;;;;;;5114778;28;20170;-89
2022/03/18 09:20:59;;;;;;;28.53;22.30;;;10.00;87.00;;;;;;5114946;28;20174;-87
2022/03/18 09:23:26;;;;;;;27.43;23.23;;;10.10;86.50;;;;;;5114993;28;20184;-89
2022/03/18 09:25:52;;;;;;;28.10;23.13;;;10.10;86.90;;;;;;5115063;28;20233;-87
2022/03/18 09:28:18;;;;;;;29.63;23.63;;;10.10;86.60;;;;;;5114375;28;20620;-90
2022/03/18 09:30:44;;;;;;;27.30;23.13;;;10.10;87.00;;;;;;5114870;28;20184;-88
2022/03/18 09:33:12;;;;;;;27.07;23.37;;;10.20;87.20;;;;;;5115178;28;20628;-86
2022/03/18 09:35:38;;;;;;;26.27;23.30;;;10.40;87.20;;;;;;5114548;28;20173;-88
2022/03/18 09:38:03;;;;;;;28.23;22.93;;;10.50;86.70;;;;;;5114934;28;20184;-86
2022/03/18 09:40:31;;;;;;;31.03;23.77;;;10.60;86.30;;;;;;5114680;28;20528;-87
2022/03/18 09:43:05;;;;;;;28.93;24.73;;;10.90;85.10;;;;;;5096434;28;20652;-87
2022/03/18 09:45:33;;;;;;;29.17;23.20;;;10.90;84.40;;;;;;5096199;28;20162;-87
2022/03/18 09:48:01;;;;;;;27.13;23.17;;;10.80;85.00;;;;;;5114339;28;20201;-88
2022/03/18 09:50:28;;;;;;;29.37;23.90;;;10.80;85.10;;;;;;5114493;28;20204;-87
2022/03/18 09:52:54;;;;;;;27.80;24.67;;;10.80;85.00;;;;;;5114547;28;20176;-84
2022/03/18 09:55:20;;;;;;;27.63;23.00;;;10.90;84.70;;;;;;5097533;28;20174;-86
2022/03/18 09:57:46;;;;;;;28.03;22.30;;;11.00;86.00;;;;;;5116127;28;20567;-87
2022/03/18 10:00:12;;;;;;;28.63;23.03;;;11.10;85.20;;;;;;5096211;28;20170;-86
2022/03/18 10:02:38;;;;;;;30.87;23.90;;;11.30;84.40;;;;;;5114554;28;20167;-88
2022/03/18 10:05:15;;;;;;;27.87;24.87;;;11.30;84.10;;;;;;5114251;28;20168;-87
2022/03/18 10:07:53;;;;;;;27.03;23.80;;;11.30;84.20;;;;;;5095932;28;20170;-89
2022/03/18 10:10:20;;;;;;;28.37;23.17;;;11.30;84.30;;;;;;5114740;28;20202;-89
2022/03/18 10:12:54;;;;;;;29.07;23.33;;;11.30;84.50;;;;;;5116424;28;20195;-89
2022/03/18 10:15:28;;;;;;;31.83;23.07;;;11.40;84.90;;;;;;5119153;28;20214;-86
2022/03/18 10:17:57;;;;;;;28.80;23.57;;;11.60;84.20;;;;;;5119367;28;20158;-84
2022/03/18 10:20:32;;;;;;;28.40;23.57;;;11.70;83.60;;;;;;5099938;28;20210;-86
2022/03/18 10:23:21;;;;;;;29.27;23.60;;;11.80;83.70;;;;;;5117863;28;20175;-85
2022/03/18 10:25:55;;;;;;;27.57;23.27;;;11.90;83.60;;;;;;5118007;28;20172;-86
2022/03/18 10:28:40;;;;;;;30.37;23.10;;;12.00;83.60;;;;;;5117817;28;20708;-87
2022/03/18 10:31:11;;;;;;;28.93;23.97;;;12.00;83.50;;;;;;5118488;28;20165;-85
2022/03/18 10:37:07;;;;;;;27.93;23.03;;;12.00;83.60;;;;;;5117967;28;20518;-87
2022/03/18 10:39:38;;;;;;;25.03;22.27;;;12.00;83.70;;;;;;5117857;28;20625;-85
2022/03/18 10:42:11;;;;;;;28.20;22.63;;;12.00;83.50;;;;;;5117676;28;20535;-86
2022/03/18 10:44:51;;;;;;;24.53;21.50;;;12.10;83.00;;;;;;5099819;28;20162;-85
2022/03/18 10:47:38;;;;;;;24.73;20.87;;;12.20;83.10;;;;;;5099921;28;20203;-87
2022/03/18 10:50:23;;;;;;;24.00;20.87;;;12.30;82.10;;;;;;5118030;28;20237;-86
2022/03/18 10:52:49;;;;;;;24.80;20.80;;;12.40;82.10;;;;;;5099649;28;20179;-86
2022/03/18 10:55:15;;;;;;;23.03;20.63;;;12.40;81.10;;;;;;5117668;28;20176;-86
2022/03/18 10:57:51;;;;;;;25.77;21.97;;;12.40;81.10;;;;;;5118302;28;20290;-86
2022/03/18 11:00:18;;;;;;;23.97;20.93;;;12.50;81.50;;;;;;5119515;28;20165;-87
2022/03/18 11:02:48;;;;;;;27.10;21.50;;;12.40;81.40;;;;;;5118202;28;20165;-84
2022/03/18 11:05:14;;;;;;;22.97;20.57;;;12.50;81.70;;;;;;5117890;28;20177;-85
2022/03/18 11:07:42;;;;;;;24.43;20.60;;;12.50;81.80;;;;;;5117563;28;20173;-85
2022/03/18 11:12:59;;;;;;;22.30;19.97;;;12.40;80.60;;;;;;5122231;28;20639;-87
2022/03/18 11:15:26;;;;;;;21.90;19.60;;;12.30;80.60;;;;;;5119503;28;20604;-86
2022/03/18 11:17:55;;;;;;;21.57;19.37;;;12.40;80.30;;;;;;5101106;28;20174;-84
2022/03/18 11:20:24;;;;;;;22.00;18.73;;;12.40;80.50;;;;;;5117923;28;20235;-87
2022/03/18 11:22:50;;;;;;;21.70;18.50;;;12.40;80.10;;;;;;5117285;28;20176;-88
2022/03/18 11:25:17;;;;;;;20.87;18.67;;;12.50;78.50;;;;;;5115889;28;20178;-88
2022/03/18 11:27:45;;;;;;;21.17;18.17;;;12.40;78.50;;;;;;5117034;28;20768;-85
2022/03/18 11:30:23;;;;;;;20.30;18.07;;;12.50;78.00;;;;;;5117432;28;20258;-88
2022/03/18 11:33:09;;;;;;;19.90;17.80;;;12.50;78.30;;;;;;5116945;28;20241;-85
2022/03/18 11:35:50;;;;;;;19.23;17.23;;;12.60;78.50;;;;;;5116705;28;20258;-85
2022/03/18 11:38:19;;;;;;;19.80;17.70;;;12.80;76.40;;;;;;5098201;28;20175;-83
2022/03/18 11:41:05;;;;;;;19.33;17.33;;;12.60;76.40;;;;;;5116584;28;20178;-85
2022/03/18 11:43:50;;;;;;;20.23;18.03;;;12.60;76.70;;;;;;5116411;28;20681;-84
2022/03/18 11:46:21;;;;;;;18.50;16.70;;;12.70;76.50;;;;;;5116472;28;20155;-85
2022/03/18 11:49:09;;;;;;;22.27;18.80;;;12.80;76.10;;;;;;5118668;28;20192;-85
2022/03/18 11:51:37;;;;;;;23.10;18.80;;;12.80;76.70;;;;;;5118231;28;20173;-86
2022/03/18 11:54:13;;;;;;;20.23;18.10;;;12.70;76.10;;;;;;5100551;28;20177;-88
2022/03/18 11:56:57;;;;;;;19.70;17.70;;;12.70;76.70;;;;;;5119139;28;20180;-87
2022/03/18 11:59:29;;;;;;;20.07;18.00;;;12.70;76.20;;;;;;5098980;28;20169;-87
2022/03/18 12:01:56;;;;;;;20.33;17.80;;;12.70;75.80;;;;;;5117015;28;20173;-88
2022/03/18 12:04:34;;;;;;;19.40;17.30;;;12.60;76.30;;;;;;5117666;28;20529;-87
2022/03/18 12:07:34;;;;;;;19.83;17.53;;;12.60;76.20;;;;;;5098906;28;20218;-88
2022/03/18 12:10:11;;;;;;;17.57;15.83;;;12.60;75.00;;;;;;5098076;28;20247;-87
2022/03/18 12:12:44;;;;;;;17.13;15.33;;;12.60;74.70;;;;;;5116187;28;20182;-86
2022/03/18 12:15:19;;;;;;;17.80;16.00;;;12.70;74.60;;;;;;5116331;28;20179;-85
2022/03/18 12:17:53;;;;;;;18.13;16.30;;;12.70;74.20;;;;;;5116071;28;20176;-86
2022/03/18 12:20:30;;;;;;;18.87;16.33;;;12.60;73.10;;;;;;5098140;28;20186;-86
2022/03/18 12:22:58;;;;;;;18.23;16.30;;;12.50;73.10;;;;;;5115856;28;20169;-84
2022/03/18 12:25:24;;;;;;;20.30;15.47;;;12.50;73.30;;;;;;5097480;28;20260;-84
2022/03/18 12:27:52;;;;;;;19.30;16.57;;;12.50;73.70;;;;;;5115396;28;20214;-85
2022/03/18 12:30:21;;;;;;;20.67;16.13;;;12.50;72.40;;;;;;5097127;28;20209;-83
2022/03/18 12:32:56;;;;;;;17.23;15.17;;;12.50;72.20;;;;;;5115329;28;20569;-85
2022/03/18 12:35:30;;;;;;;17.90;16.10;;;12.50;73.00;;;;;;5115017;28;20170;-84
2022/03/18 12:38:08;;;;;;;17.87;16.00;;;12.50;73.70;;;;;;5097314;28;20166;-84
2022/03/18 12:41:06;;;;;;;16.87;15.27;;;12.50;73.80;;;;;;5115313;28;20164;-85
2022/03/18 12:43:32;;;;;;;17.67;15.77;;;12.50;72.30;;;;;;5113066;28;20280;-86
2022/03/18 12:45:58;;;;;;;18.00;16.10;;;12.30;72.40;;;;;;5097209;28;20182;-85
2022/03/18 12:48:24;;;;;;;19.60;16.27;;;12.20;72.50;;;;;;5115480;28;20182;-84
2022/03/18 12:50:53;;;;;;;18.47;15.87;;;12.10;72.50;;;;;;5115304;28;20254;-85
2022/03/18 12:53:21;;;;;;;17.43;15.40;;;12.10;72.80;;;;;;5114967;28;20183;-85
2022/03/18 12:55:51;;;;;;;17.60;15.80;;;11.90;73.40;;;;;;5115094;28;20178;-84